Time;durP1;ratioP1;P1;durP2;ratioP2;P2;SDS_P1;SDS_P2;PMS_P1;PMS_P2;Temp;Humidity;BMP_temperature;BMP_pressure;BME280_temperature;BME280_humidity;BME280_pressure;Samples;Min_cycle;Max_cycle;Signal;HPM_P1;HPM_P2
2023/12/26 00:00:37;;;;;;;9.48;1.40;;;;;;;;;;4975107;28;92485;-64
2023/12/26 00:03:06;;;;;;;3.78;0.90;;;;;;;;;;4974158;28;95157;-64
2023/12/26 00:05:33;;;;;;;3.83;0.82;;;;;;;;;;4971052;28;93778;-64
2023/12/26 00:08:02;;;;;;;2.42;0.93;;;;;;;;;;4972930;28;92929;-65
2023/12/26 00:10:29;;;;;;;3.05;0.88;;;;;;;;;;4968832;28;94402;-64
2023/12/26 00:12:56;;;;;;;0.60;0.55;;;;;;;;;;4968574;28;93426;-65
2023/12/26 00:15:23;;;;;;;4.22;0.98;;;;;;;;;;4974689;28;93090;-64
2023/12/26 00:17:50;;;;;;;3.97;1.27;;;;;;;;;;4973330;28;93185;-64
2023/12/26 00:20:17;;;;;;;1.42;0.80;;;;;;;;;;4964240;28;91826;-64
2023/12/26 00:22:43;;;;;;;4.57;1.17;;;;;;;;;;4974434;28;93225;-64
2023/12/26 00:25:11;;;;;;;2.92;0.82;;;;;;;;;;4974544;28;93415;-64
2023/12/26 00:27:39;;;;;;;5.60;0.98;;;;;;;;;;4969972;28;94935;-64
2023/12/26 00:30:07;;;;;;;4.15;1.08;;;;;;;;;;4969777;28;95510;-64
2023/12/26 00:32:35;;;;;;;4.95;0.98;;;;;;;;;;4974257;28;93604;-64
2023/12/26 00:35:01;;;;;;;3.58;1.00;;;;;;;;;;4969805;28;92511;-65
2023/12/26 00:37:29;;;;;;;4.07;1.08;;;;;;;;;;4973614;28;95155;-65
2023/12/26 00:39:55;;;;;;;3.47;1.15;;;;;;;;;;4977647;28;93376;-64
2023/12/26 00:42:21;;;;;;;2.40;0.90;;;;;;;;;;4970071;28;93160;-64
2023/12/26 00:44:48;;;;;;;4.13;1.38;;;;;;;;;;4974421;28;93023;-65
2023/12/26 00:47:14;;;;;;;2.67;0.90;;;;;;;;;;4974280;28;92638;-65
2023/12/26 00:49:41;;;;;;;2.85;0.98;;;;;;;;;;4974401;28;93426;-64
2023/12/26 00:52:07;;;;;;;5.90;1.50;;;;;;;;;;4968477;28;95889;-64
2023/12/26 00:54:35;;;;;;;3.88;1.10;;;;;;;;;;4970250;28;92479;-65
2023/12/26 00:57:02;;;;;;;2.22;0.80;;;;;;;;;;4970569;28;93069;-65
2023/12/26 00:59:29;;;;;;;3.42;1.00;;;;;;;;;;4969257;28;95523;-64
2023/12/26 01:02:00;;;;;;;2.83;0.80;;;;;;;;;;4974938;28;92477;-65
2023/12/26 01:04:27;;;;;;;3.25;0.90;;;;;;;;;;4972916;28;93815;-64
2023/12/26 01:06:54;;;;;;;3.05;0.90;;;;;;;;;;4970433;28;92455;-64
2023/12/26 01:09:20;;;;;;;3.03;0.80;;;;;;;;;;4971852;28;93146;-64
2023/12/26 01:11:47;;;;;;;4.18;1.00;;;;;;;;;;4974181;28;94529;-65
2023/12/26 01:14:13;;;;;;;3.63;0.90;;;;;;;;;;4972929;28;92604;-64
2023/12/26 01:16:43;;;;;;;2.42;1.30;;;;;;;;;;4968013;28;94875;-64
2023/12/26 01:19:10;;;;;;;4.68;1.10;;;;;;;;;;4970021;28;93468;-64
2023/12/26 01:21:37;;;;;;;3.67;1.15;;;;;;;;;;4970269;28;92428;-64
2023/12/26 01:24:04;;;;;;;4.38;1.13;;;;;;;;;;4972348;28;93434;-64
2023/12/26 01:26:30;;;;;;;6.03;1.13;;;;;;;;;;4971083;28;92660;-64
2023/12/26 01:28:57;;;;;;;6.60;1.33;;;;;;;;;;4969083;28;94078;-65
2023/12/26 01:31:23;;;;;;;3.83;1.30;;;;;;;;;;4971821;28;93423;-64
2023/12/26 01:33:51;;;;;;;9.23;1.48;;;;;;;;;;4971063;28;91809;-65
2023/12/26 01:36:18;;;;;;;3.45;1.08;;;;;;;;;;4968466;28;92591;-64
2023/12/26 01:38:44;;;;;;;10.70;1.83;;;;;;;;;;4971405;28;93256;-65
2023/12/26 01:41:11;;;;;;;6.57;1.55;;;;;;;;;;4970306;28;97797;-64
2023/12/26 01:43:37;;;;;;;7.32;1.35;;;;;;;;;;4972921;28;95505;-64
2023/12/26 01:46:04;;;;;;;3.97;1.15;;;;;;;;;;4975992;28;93758;-65
2023/12/26 01:48:30;;;;;;;9.63;1.65;;;;;;;;;;4969032;28;93085;-64
2023/12/26 01:50:58;;;;;;;7.03;1.50;;;;;;;;;;4969553;28;93869;-65
2023/12/26 01:53:24;;;;;;;6.50;1.20;;;;;;;;;;4972804;28;92514;-64
2023/12/26 01:55:51;;;;;;;6.75;1.15;;;;;;;;;;4970020;28;93044;-64
2023/12/26 01:58:18;;;;;;;7.28;1.42;;;;;;;;;;4972992;28;92557;-65
2023/12/26 02:00:45;;;;;;;9.68;1.58;;;;;;;;;;4968687;28;92510;-64
2023/12/26 02:03:11;;;;;;;9.50;2.15;;;;;;;;;;4965592;28;93545;-64
2023/12/26 02:05:38;;;;;;;9.18;1.90;;;;;;;;;;4963346;28;97547;-64
2023/12/26 02:08:06;;;;;;;7.47;1.67;;;;;;;;;;4976289;28;93840;-65
2023/12/26 02:10:44;;;;;;;8.30;1.52;;;;;;;;;;4972812;28;93494;-64
2023/12/26 02:13:10;;;;;;;7.05;1.50;;;;;;;;;;4967584;28;93428;-65
2023/12/26 02:15:37;;;;;;;11.25;1.92;;;;;;;;;;4970894;28;93456;-64
2023/12/26 02:18:03;;;;;;;11.38;1.60;;;;;;;;;;4967424;28;93476;-64
2023/12/26 02:20:30;;;;;;;8.50;1.75;;;;;;;;;;4972973;28;93142;-64
2023/12/26 02:22:56;;;;;;;9.45;1.40;;;;;;;;;;4965700;28;93440;-64
2023/12/26 02:25:24;;;;;;;11.70;1.45;;;;;;;;;;4969298;28;93518;-64
2023/12/26 02:27:51;;;;;;;12.43;1.70;;;;;;;;;;4976306;28;92441;-65
2023/12/26 02:30:17;;;;;;;4.20;1.35;;;;;;;;;;4969774;28;97076;-64
2023/12/26 02:32:46;;;;;;;3.30;1.23;;;;;;;;;;4972230;28;95648;-64
2023/12/26 02:35:12;;;;;;;5.32;0.90;;;;;;;;;;4972216;28;94703;-65
2023/12/26 02:37:39;;;;;;;4.25;0.82;;;;;;;;;;4963473;28;93452;-65
2023/12/26 02:40:07;;;;;;;5.95;1.00;;;;;;;;;;4972875;28;92671;-65
2023/12/26 02:42:34;;;;;;;8.00;1.05;;;;;;;;;;4967424;28;93429;-64
2023/12/26 02:45:00;;;;;;;4.72;1.05;;;;;;;;;;4972122;28;93513;-64
2023/12/26 02:47:27;;;;;;;9.60;1.42;;;;;;;;;;4973093;28;91830;-65
2023/12/26 02:49:53;;;;;;;8.23;1.48;;;;;;;;;;4972617;28;94766;-64
2023/12/26 02:52:19;;;;;;;8.02;1.63;;;;;;;;;;4972769;28;92523;-64
2023/12/26 02:54:46;;;;;;;9.00;1.58;;;;;;;;;;4967375;28;94938;-65
2023/12/26 02:57:12;;;;;;;9.57;1.55;;;;;;;;;;4969760;28;93615;-65
2023/12/26 02:59:39;;;;;;;13.48;1.75;;;;;;;;;;4972081;28;93623;-64
2023/12/26 03:02:05;;;;;;;15.57;2.15;;;;;;;;;;4970955;28;93231;-64
2023/12/26 03:04:32;;;;;;;15.43;1.65;;;;;;;;;;4971708;28;93407;-64
2023/12/26 03:06:58;;;;;;;9.68;1.88;;;;;;;;;;4968360;28;92698;-65
2023/12/26 03:09:24;;;;;;;14.75;2.38;;;;;;;;;;4967100;28;93628;-65
2023/12/26 03:11:51;;;;;;;7.03;1.70;;;;;;;;;;4972265;28;92694;-65
2023/12/26 03:14:17;;;;;;;7.63;1.55;;;;;;;;;;4972702;28;93536;-64
2023/12/26 03:16:44;;;;;;;12.85;1.70;;;;;;;;;;4971590;28;94170;-65
2023/12/26 03:19:10;;;;;;;9.85;1.92;;;;;;;;;;4963240;28;94973;-64
2023/12/26 03:21:37;;;;;;;7.25;1.58;;;;;;;;;;4968500;28;95798;-65
2023/12/26 03:24:03;;;;;;;9.75;1.35;;;;;;;;;;4972340;28;93466;-64
2023/12/26 03:26:30;;;;;;;11.02;1.48;;;;;;;;;;4973682;28;92425;-64
2023/12/26 03:28:56;;;;;;;17.30;1.52;;;;;;;;;;4970168;28;93179;-64
2023/12/26 03:31:23;;;;;;;5.95;1.33;;;;;;;;;;4972594;28;93297;-64
2023/12/26 03:33:49;;;;;;;6.38;1.27;;;;;;;;;;4974485;28;92468;-64
2023/12/26 03:36:15;;;;;;;8.60;1.58;;;;;;;;;;4975847;28;92920;-64
2023/12/26 03:38:43;;;;;;;8.52;2.08;;;;;;;;;;4968771;28;92438;-65
2023/12/26 03:41:10;;;;;;;4.97;1.10;;;;;;;;;;4975481;28;93263;-65
2023/12/26 03:43:36;;;;;;;14.68;1.55;;;;;;;;;;4973038;28;96929;-65
2023/12/26 03:46:03;;;;;;;8.98;2.00;;;;;;;;;;4970896;28;92867;-64
2023/12/26 03:48:29;;;;;;;7.32;1.25;;;;;;;;;;4971441;28;93473;-64
2023/12/26 03:50:56;;;;;;;10.18;1.60;;;;;;;;;;4971386;28;94378;-64
2023/12/26 03:53:22;;;;;;;6.90;1.27;;;;;;;;;;4973588;28;92571;-64
2023/12/26 03:55:49;;;;;;;7.75;1.55;;;;;;;;;;4993681;28;94478;-65
2023/12/26 03:58:16;;;;;;;9.07;1.60;;;;;;;;;;4971242;28;92725;-64
2023/12/26 04:00:42;;;;;;;9.27;1.20;;;;;;;;;;4967709;28;93241;-64
2023/12/26 04:03:09;;;;;;;11.98;1.77;;;;;;;;;;4972671;28;92433;-64
2023/12/26 04:05:35;;;;;;;11.88;1.92;;;;;;;;;;4970455;28;92528;-64
2023/12/26 04:08:04;;;;;;;7.75;1.20;;;;;;;;;;4971299;28;94980;-65
2023/12/26 04:10:30;;;;;;;6.05;1.10;;;;;;;;;;4975077;28;93417;-64
2023/12/26 04:12:56;;;;;;;9.13;1.75;;;;;;;;;;4974355;28;92535;-64
2023/12/26 04:15:24;;;;;;;9.32;1.33;;;;;;;;;;4974991;28;93161;-64
2023/12/26 04:17:51;;;;;;;8.18;1.35;;;;;;;;;;4974576;28;92507;-64
2023/12/26 04:20:17;;;;;;;7.25;1.17;;;;;;;;;;4973853;28;94675;-64
2023/12/26 04:22:44;;;;;;;9.85;1.63;;;;;;;;;;4971321;28;93400;-64
2023/12/26 04:25:10;;;;;;;17.63;2.03;;;;;;;;;;4973070;28;92307;-64
2023/12/26 04:27:36;;;;;;;7.28;1.10;;;;;;;;;;4970599;28;92600;-65
2023/12/26 04:30:03;;;;;;;5.50;1.15;;;;;;;;;;4969870;28;93291;-65
2023/12/26 04:32:30;;;;;;;5.47;1.05;;;;;;;;;;4968902;28;95044;-64
2023/12/26 04:34:56;;;;;;;13.05;1.55;;;;;;;;;;4973185;28;96778;-65
2023/12/26 04:37:26;;;;;;;9.05;1.60;;;;;;;;;;4977121;28;93726;-64
2023/12/26 04:39:52;;;;;;;10.45;1.63;;;;;;;;;;4970306;28;93301;-64
2023/12/26 04:42:18;;;;;;;5.18;1.40;;;;;;;;;;4969411;28;93376;-65
2023/12/26 04:44:46;;;;;;;9.60;1.60;;;;;;;;;;4967921;28;92425;-64
2023/12/26 04:47:12;;;;;;;14.55;1.70;;;;;;;;;;4972890;28;94216;-64
2023/12/26 04:49:39;;;;;;;7.72;1.05;;;;;;;;;;4967902;28;93673;-64
2023/12/26 04:52:06;;;;;;;6.88;1.55;;;;;;;;;;4974127;28;92737;-65
2023/12/26 04:54:32;;;;;;;8.43;1.55;;;;;;;;;;4967605;28;95034;-64
2023/12/26 04:56:59;;;;;;;9.63;1.48;;;;;;;;;;4969292;28;97222;-64
2023/12/26 04:59:26;;;;;;;11.95;1.55;;;;;;;;;;4973404;28;92635;-64
2023/12/26 05:01:52;;;;;;;16.00;1.83;;;;;;;;;;4988945;28;93449;-65
2023/12/26 05:04:18;;;;;;;9.27;1.58;;;;;;;;;;4970375;28;92423;-64
2023/12/26 05:06:45;;;;;;;10.07;1.30;;;;;;;;;;4974199;28;93152;-65
2023/12/26 05:09:11;;;;;;;12.52;1.55;;;;;;;;;;4969031;28;93807;-64
2023/12/26 05:11:38;;;;;;;8.65;1.90;;;;;;;;;;4972331;28;92781;-64
2023/12/26 05:14:04;;;;;;;16.50;2.00;;;;;;;;;;4974387;28;93143;-64
2023/12/26 05:16:31;;;;;;;8.65;1.40;;;;;;;;;;4973805;28;92918;-64
2023/12/26 05:18:57;;;;;;;5.00;1.60;;;;;;;;;;4974299;28;92635;-64
2023/12/26 05:21:24;;;;;;;10.82;1.70;;;;;;;;;;4970232;28;94924;-65
2023/12/26 05:23:51;;;;;;;10.95;1.60;;;;;;;;;;4970651;28;92462;-64
2023/12/26 05:26:17;;;;;;;9.15;1.75;;;;;;;;;;4972564;28;94109;-64
2023/12/26 05:28:44;;;;;;;9.75;1.60;;;;;;;;;;4967772;28;93439;-65
2023/12/26 05:31:10;;;;;;;7.68;1.40;;;;;;;;;;4970616;28;92664;-64
2023/12/26 05:33:37;;;;;;;10.05;1.33;;;;;;;;;;4970055;28;94171;-64
2023/12/26 05:36:04;;;;;;;19.17;1.70;;;;;;;;;;4973997;28;94466;-64
2023/12/26 05:38:31;;;;;;;11.80;1.92;;;;;;;;;;4968507;28;91788;-65
2023/12/26 05:40:57;;;;;;;12.13;1.95;;;;;;;;;;4973950;28;93467;-64
2023/12/26 05:43:23;;;;;;;7.60;1.80;;;;;;;;;;4975512;28;93422;-64
2023/12/26 05:45:50;;;;;;;10.30;1.50;;;;;;;;;;4968397;28;94835;-64
2023/12/26 05:48:16;;;;;;;12.23;2.10;;;;;;;;;;4969819;28;93695;-64
2023/12/26 05:50:43;;;;;;;19.65;2.15;;;;;;;;;;4973061;28;92716;-64
2023/12/26 05:53:10;;;;;;;7.68;1.80;;;;;;;;;;4969322;28;94408;-65
2023/12/26 05:55:36;;;;;;;16.33;1.92;;;;;;;;;;4968820;28;93508;-64
2023/12/26 05:58:03;;;;;;;12.85;1.90;;;;;;;;;;4970850;28;92419;-64
2023/12/26 06:00:29;;;;;;;13.02;2.20;;;;;;;;;;4973625;28;93137;-67
2023/12/26 06:02:56;;;;;;;20.50;2.22;;;;;;;;;;4971950;28;93105;-64
2023/12/26 06:05:22;;;;;;;8.95;1.67;;;;;;;;;;4972282;28;92539;-64
2023/12/26 06:07:49;;;;;;;9.85;1.55;;;;;;;;;;4972237;28;93272;-64
2023/12/26 06:10:15;;;;;;;18.55;1.77;;;;;;;;;;4970626;28;95351;-64
2023/12/26 06:12:42;;;;;;;23.20;2.17;;;;;;;;;;4973693;28;96586;-64
2023/12/26 06:15:08;;;;;;;13.68;1.65;;;;;;;;;;4973533;28;94515;-64
2023/12/26 06:17:36;;;;;;;9.43;1.58;;;;;;;;;;4971152;28;92313;-65
2023/12/26 06:20:03;;;;;;;11.60;1.80;;;;;;;;;;4972775;28;93159;-64
2023/12/26 06:22:30;;;;;;;8.82;1.95;;;;;;;;;;4969820;28;93746;-64
2023/12/26 06:24:57;;;;;;;6.28;1.45;;;;;;;;;;4967861;28;92385;-64
2023/12/26 06:27:23;;;;;;;11.52;2.10;;;;;;;;;;4972023;28;92958;-64
2023/12/26 06:29:50;;;;;;;12.52;1.77;;;;;;;;;;4970152;28;92547;-64
2023/12/26 06:32:16;;;;;;;9.10;1.65;;;;;;;;;;4968849;28;93328;-65
2023/12/26 06:34:43;;;;;;;11.30;1.50;;;;;;;;;;4964998;28;95820;-64
2023/12/26 06:37:09;;;;;;;11.98;1.92;;;;;;;;;;4969994;28;92584;-64
2023/12/26 06:39:36;;;;;;;13.60;1.88;;;;;;;;;;4970408;28;93176;-65
2023/12/26 06:42:03;;;;;;;14.57;1.85;;;;;;;;;;4972798;28;93392;-65
2023/12/26 06:44:30;;;;;;;7.95;1.45;;;;;;;;;;4970346;28;92651;-65
2023/12/26 06:46:56;;;;;;;8.77;1.60;;;;;;;;;;4974356;28;93097;-64
2023/12/26 06:49:23;;;;;;;16.27;2.30;;;;;;;;;;4969135;28;92438;-64
2023/12/26 06:51:50;;;;;;;14.65;1.77;;;;;;;;;;4987225;28;93625;-65
2023/12/26 06:54:16;;;;;;;12.15;2.00;;;;;;;;;;4971827;28;93420;-64
2023/12/26 06:56:42;;;;;;;12.25;1.88;;;;;;;;;;4967324;28;92431;-65
2023/12/26 06:59:09;;;;;;;10.00;1.95;;;;;;;;;;4967420;28;95158;-65
2023/12/26 07:01:35;;;;;;;9.93;1.63;;;;;;;;;;4970073;28;93797;-65
2023/12/26 07:04:02;;;;;;;12.40;1.55;;;;;;;;;;4972832;28;92589;-65
2023/12/26 07:06:28;;;;;;;11.35;2.35;;;;;;;;;;4964640;28;92552;-65
2023/12/26 07:08:55;;;;;;;14.95;2.33;;;;;;;;;;4975213;28;93553;-65
2023/12/26 07:11:22;;;;;;;13.45;1.98;;;;;;;;;;4968422;28;93269;-65
2023/12/26 07:13:48;;;;;;;8.93;1.60;;;;;;;;;;4970986;28;93464;-65
2023/12/26 07:16:14;;;;;;;14.35;2.25;;;;;;;;;;4971993;28;91967;-65
2023/12/26 07:18:41;;;;;;;8.55;2.13;;;;;;;;;;4972499;28;92747;-66
2023/12/26 07:21:08;;;;;;;14.82;1.75;;;;;;;;;;4969866;28;93595;-65
2023/12/26 07:23:34;;;;;;;14.13;2.15;;;;;;;;;;4969468;28;95045;-65
2023/12/26 07:26:01;;;;;;;11.20;1.85;;;;;;;;;;4982482;28;95596;-64
2023/12/26 07:28:27;;;;;;;19.30;2.47;;;;;;;;;;4969027;28;93440;-65
2023/12/26 07:30:53;;;;;;;13.10;1.90;;;;;;;;;;4967696;28;92395;-65
2023/12/26 07:33:20;;;;;;;24.40;2.58;;;;;;;;;;4969818;28;93495;-66
2023/12/26 07:35:47;;;;;;;18.17;2.65;;;;;;;;;;4971366;28;92546;-66
2023/12/26 07:38:13;;;;;;;15.27;1.80;;;;;;;;;;4971669;28;93182;-66
2023/12/26 07:40:39;;;;;;;10.55;2.03;;;;;;;;;;4972848;28;94371;-66
2023/12/26 07:43:06;;;;;;;21.88;2.55;;;;;;;;;;4971757;28;92736;-66
2023/12/26 07:45:32;;;;;;;10.55;2.42;;;;;;;;;;4982051;28;93583;-66
2023/12/26 07:47:59;;;;;;;13.85;2.05;;;;;;;;;;4968815;28;97359;-66
2023/12/26 07:50:26;;;;;;;14.95;2.58;;;;;;;;;;4970581;28;93607;-66
2023/12/26 07:52:52;;;;;;;12.13;2.00;;;;;;;;;;4973745;28;93033;-66
2023/12/26 07:55:19;;;;;;;17.40;2.60;;;;;;;;;;4971920;28;92555;-66
2023/12/26 07:57:45;;;;;;;11.93;2.80;;;;;;;;;;4971464;28;94638;-66
2023/12/26 08:00:12;;;;;;;13.02;2.25;;;;;;;;;;4964412;28;94433;-66
2023/12/26 08:02:39;;;;;;;10.38;1.80;;;;;;;;;;4969682;28;92463;-66
2023/12/26 08:05:05;;;;;;;10.00;2.05;;;;;;;;;;4972493;28;94598;-66
2023/12/26 08:07:32;;;;;;;12.45;2.90;;;;;;;;;;4972557;28;93475;-66
2023/12/26 08:09:58;;;;;;;19.92;3.33;;;;;;;;;;4967983;28;92519;-66
2023/12/26 08:12:25;;;;;;;11.30;1.70;;;;;;;;;;4969788;28;95071;-66
2023/12/26 08:14:51;;;;;;;19.30;2.13;;;;;;;;;;4975362;28;93894;-66
2023/12/26 08:17:18;;;;;;;12.23;1.88;;;;;;;;;;4974143;28;93474;-66
2023/12/26 08:19:44;;;;;;;19.92;2.42;;;;;;;;;;4975088;28;93620;-66
2023/12/26 08:22:11;;;;;;;9.30;1.58;;;;;;;;;;4971159;28;92442;-66
2023/12/26 08:24:37;;;;;;;14.23;1.80;;;;;;;;;;4971853;28;93833;-66
2023/12/26 08:27:03;;;;;;;18.00;2.08;;;;;;;;;;4970205;28;93384;-66
2023/12/26 08:29:30;;;;;;;11.30;1.65;;;;;;;;;;4972961;28;91735;-66
2023/12/26 08:31:56;;;;;;;6.47;1.15;;;;;;;;;;4966398;28;96282;-67
2023/12/26 08:34:23;;;;;;;15.15;1.77;;;;;;;;;;4977573;28;94437;-66
2023/12/26 08:36:49;;;;;;;15.18;2.00;;;;;;;;;;4966704;28;95160;-66
2023/12/26 08:39:16;;;;;;;11.55;1.98;;;;;;;;;;4969756;28;93744;-66
2023/12/26 08:41:42;;;;;;;10.20;1.77;;;;;;;;;;4967281;28;92436;-66
2023/12/26 08:44:09;;;;;;;11.73;1.70;;;;;;;;;;4974421;28;93418;-66
2023/12/26 08:46:35;;;;;;;10.77;1.90;;;;;;;;;;4966703;28;93414;-67
2023/12/26 08:49:04;;;;;;;8.63;2.10;;;;;;;;;;4974592;28;92428;-68
2023/12/26 08:51:31;;;;;;;11.68;2.20;;;;;;;;;;4968656;28;92961;-68
2023/12/26 08:53:57;;;;;;;16.60;2.53;;;;;;;;;;4972823;28;92661;-68
2023/12/26 08:56:24;;;;;;;17.75;2.60;;;;;;;;;;4970668;28;92481;-68
2023/12/26 08:58:51;;;;;;;12.35;2.33;;;;;;;;;;4966592;28;93770;-68
2023/12/26 09:01:17;;;;;;;12.20;2.13;;;;;;;;;;4968328;28;95200;-68
2023/12/26 09:03:43;;;;;;;10.57;2.22;;;;;;;;;;4970666;28;95568;-68
2023/12/26 09:06:10;;;;;;;16.88;2.58;;;;;;;;;;4967061;28;93529;-68
2023/12/26 09:08:37;;;;;;;13.00;2.20;;;;;;;;;;4989668;28;92612;-67
2023/12/26 09:11:04;;;;;;;18.48;2.83;;;;;;;;;;4970013;28;93482;-68
2023/12/26 09:13:30;;;;;;;7.05;2.28;;;;;;;;;;4968718;28;94006;-67
2023/12/26 09:16:00;;;;;;;12.25;2.13;;;;;;;;;;4965672;28;92551;-67
2023/12/26 09:18:26;;;;;;;20.23;3.13;;;;;;;;;;4970464;28;93246;-67
2023/12/26 09:20:54;;;;;;;13.52;2.67;;;;;;;;;;4966147;28;93225;-67
2023/12/26 09:23:20;;;;;;;17.70;3.50;;;;;;;;;;4970881;28;94130;-67
2023/12/26 09:25:47;;;;;;;10.30;2.97;;;;;;;;;;4968648;28;95833;-67
2023/12/26 09:28:13;;;;;;;12.93;2.75;;;;;;;;;;4974183;28;92621;-67
2023/12/26 09:30:40;;;;;;;22.38;4.78;;;;;;;;;;4988747;28;94686;-68
2023/12/26 09:33:06;;;;;;;12.27;2.72;;;;;;;;;;4973011;28;93737;-68
2023/12/26 09:35:34;;;;;;;12.35;2.83;;;;;;;;;;4972446;28;92863;-67
2023/12/26 09:38:02;;;;;;;16.00;2.85;;;;;;;;;;4968332;28;93534;-68
2023/12/26 09:40:28;;;;;;;20.70;2.67;;;;;;;;;;4992244;28;93340;-68
2023/12/26 09:43:00;;;;;;;16.33;2.85;;;;;;;;;;4973916;28;91735;-68
2023/12/26 09:45:26;;;;;;;12.63;3.50;;;;;;;;;;4969901;28;93565;-68
2023/12/26 09:47:54;;;;;;;17.27;2.72;;;;;;;;;;4983032;28;92703;-68
2023/12/26 09:50:20;;;;;;;12.77;2.25;;;;;;;;;;4965721;28;94934;-68
2023/12/26 09:52:50;;;;;;;24.08;3.00;;;;;;;;;;4964940;28;93280;-65
2023/12/26 09:55:17;;;;;;;14.65;2.30;;;;;;;;;;4981291;28;92466;-66
2023/12/26 09:57:43;;;;;;;11.20;3.15;;;;;;;;;;4966145;28;93349;-67
2023/12/26 10:00:10;;;;;;;12.38;2.28;;;;;;;;;;4967977;28;93402;-67
2023/12/26 10:02:36;;;;;;;14.73;2.35;;;;;;;;;;4972860;28;92937;-68
2023/12/26 10:05:03;;;;;;;13.40;2.22;;;;;;;;;;4967135;28;93470;-68
2023/12/26 10:07:30;;;;;;;21.35;3.10;;;;;;;;;;4969035;28;92686;-68
2023/12/26 10:09:56;;;;;;;14.88;2.22;;;;;;;;;;4969842;28;92419;-68
2023/12/26 10:12:27;;;;;;;13.88;2.80;;;;;;;;;;4969473;28;96233;-67
2023/12/26 10:14:57;;;;;;;17.98;2.42;;;;;;;;;;4967515;28;95142;-67
2023/12/26 10:17:23;;;;;;;11.68;2.50;;;;;;;;;;4972748;28;95619;-68
2023/12/26 10:19:50;;;;;;;13.55;2.65;;;;;;;;;;4965328;28;92524;-68
2023/12/26 10:22:17;;;;;;;16.58;2.20;;;;;;;;;;4970119;28;92819;-68
2023/12/26 10:24:43;;;;;;;11.50;2.42;;;;;;;;;;4965592;28;93061;-69
2023/12/26 10:27:09;;;;;;;11.60;2.60;;;;;;;;;;4963040;28;92726;-69
2023/12/26 10:29:36;;;;;;;14.90;3.03;;;;;;;;;;4968399;28;93118;-67
2023/12/26 10:32:03;;;;;;;12.00;2.40;;;;;;;;;;4970848;28;92786;-67
2023/12/26 10:34:30;;;;;;;14.90;2.70;;;;;;;;;;4969389;28;92983;-68
2023/12/26 10:36:56;;;;;;;9.80;2.22;;;;;;;;;;4968601;28;93904;-68
2023/12/26 10:39:23;;;;;;;6.90;2.17;;;;;;;;;;4971399;28;96860;-68
2023/12/26 10:41:51;;;;;;;14.55;1.85;;;;;;;;;;4973279;28;92482;-68
2023/12/26 10:44:18;;;;;;;11.88;2.03;;;;;;;;;;4966137;28;93183;-68
2023/12/26 10:46:45;;;;;;;16.67;2.60;;;;;;;;;;4964825;28;93181;-67
2023/12/26 10:49:21;;;;;;;13.48;2.47;;;;;;;;;;4965934;28;93208;-67
2023/12/26 10:51:48;;;;;;;15.32;2.38;;;;;;;;;;4968194;28;93795;-69
2023/12/26 10:54:22;;;;;;;10.45;2.15;;;;;;;;;;4973300;28;92809;-69
2023/12/26 10:56:50;;;;;;;16.23;2.92;;;;;;;;;;4984389;28;93131;-69
2023/12/26 13:54:11;;;;;;;9.60;1.55;;;;;;;;;;4970685;28;92532;-69
2023/12/26 13:56:37;;;;;;;9.50;2.33;;;;;;;;;;4962212;28;92345;-68
2023/12/26 13:59:03;;;;;;;10.23;2.00;;;;;;;;;;4965359;28;92668;-68
2023/12/26 14:01:30;;;;;;;10.02;1.85;;;;;;;;;;4969027;28;92456;-69
2023/12/26 14:03:57;;;;;;;10.68;1.80;;;;;;;;;;4969842;28;93152;-67
2023/12/26 14:06:23;;;;;;;9.90;2.00;;;;;;;;;;4966644;28;96291;-68
2023/12/26 14:08:51;;;;;;;7.65;1.60;;;;;;;;;;4965511;28;92683;-68
2023/12/26 14:11:18;;;;;;;9.55;1.65;;;;;;;;;;4970908;28;93456;-67
2023/12/26 14:13:47;;;;;;;13.88;1.92;;;;;;;;;;4986176;28;94570;-68
2023/12/26 14:16:15;;;;;;;8.10;1.92;;;;;;;;;;4968570;28;93384;-67
2023/12/26 14:18:41;;;;;;;5.13;1.08;;;;;;;;;;4973176;28;93466;-68
2023/12/26 14:21:08;;;;;;;9.93;2.08;;;;;;;;;;4970095;28;92589;-68
2023/12/26 14:23:35;;;;;;;7.75;2.13;;;;;;;;;;4970168;28;92979;-68
2023/12/26 14:26:01;;;;;;;9.25;1.77;;;;;;;;;;4972824;28;93540;-68
2023/12/26 14:28:28;;;;;;;13.00;2.55;;;;;;;;;;4970038;28;92477;-68
2023/12/26 14:30:54;;;;;;;15.20;2.22;;;;;;;;;;4970910;28;94962;-69
2023/12/26 14:33:21;;;;;;;15.05;2.25;;;;;;;;;;4966727;28;93616;-68
2023/12/26 14:35:48;;;;;;;13.88;2.70;;;;;;;;;;4967939;28;92654;-68
2023/12/26 14:38:17;;;;;;;7.82;1.55;;;;;;;;;;4968998;28;93906;-67
2023/12/26 14:40:44;;;;;;;10.77;2.58;;;;;;;;;;4966244;28;92424;-69
2023/12/26 14:43:15;;;;;;;;;;;;;;;;;;4965739;28;94556;-69
2023/12/26 14:45:41;;;;;;;8.50;2.85;;;;;;;;;;4984378;28;124088;-68
2023/12/26 14:48:08;;;;;;;6.80;2.10;;;;;;;;;;4969267;28;91702;-68
2023/12/26 14:50:35;;;;;;;7.18;1.55;;;;;;;;;;4971918;28;92697;-68
2023/12/26 14:53:01;;;;;;;9.43;1.60;;;;;;;;;;4972727;28;94251;-68
2023/12/26 14:55:27;;;;;;;12.20;2.22;;;;;;;;;;4962688;28;94905;-67
2023/12/26 14:57:54;;;;;;;7.60;1.52;;;;;;;;;;4970837;28;95843;-68
2023/12/26 15:00:20;;;;;;;8.85;2.30;;;;;;;;;;4967387;28;92655;-68
2023/12/26 15:02:49;;;;;;;11.93;2.28;;;;;;;;;;4969141;28;93536;-67
2023/12/26 15:05:16;;;;;;;14.93;3.53;;;;;;;;;;4964457;28;93404;-68
2023/12/26 15:07:43;;;;;;;11.38;2.30;;;;;;;;;;4969576;28;92586;-66
2023/12/26 15:10:09;;;;;;;11.05;1.67;;;;;;;;;;4970835;28;93622;-69
2023/12/26 15:12:35;;;;;;;13.13;1.90;;;;;;;;;;4971361;28;93133;-69
2023/12/26 15:15:03;;;;;;;15.85;2.13;;;;;;;;;;4967263;28;92796;-69
2023/12/26 15:17:29;;;;;;;8.05;1.45;;;;;;;;;;4972532;28;93491;-68
2023/12/26 15:19:56;;;;;;;7.53;1.50;;;;;;;;;;4960600;28;94963;-68
2023/12/26 15:22:22;;;;;;;12.13;1.55;;;;;;;;;;4966807;28;95888;-68
2023/12/26 15:24:49;;;;;;;9.80;1.70;;;;;;;;;;4962602;28;93778;-68
2023/12/26 15:27:15;;;;;;;9.48;2.05;;;;;;;;;;4964271;28;92540;-69
2023/12/26 15:29:42;;;;;;;11.63;1.55;;;;;;;;;;4964829;28;92523;-68
2023/12/26 15:32:09;;;;;;;13.07;2.05;;;;;;;;;;4967610;28;93293;-69
2023/12/26 15:34:36;;;;;;;9.40;1.50;;;;;;;;;;4959590;28;92441;-68
2023/12/26 15:37:03;;;;;;;9.63;1.98;;;;;;;;;;4971742;28;93349;-68
2023/12/26 15:39:29;;;;;;;10.70;1.95;;;;;;;;;;4972136;28;93544;-68
2023/12/26 15:41:56;;;;;;;9.02;1.55;;;;;;;;;;4968054;28;92633;-67
2023/12/26 15:44:23;;;;;;;11.52;1.63;;;;;;;;;;4966815;28;96038;-70
2023/12/26 15:46:49;;;;;;;11.65;1.20;;;;;;;;;;4971723;28;92448;-69
2023/12/26 15:49:16;;;;;;;11.38;1.60;;;;;;;;;;4971302;28;93161;-68
2023/12/26 15:51:42;;;;;;;8.07;1.70;;;;;;;;;;4971328;28;94421;-68
2023/12/26 15:54:09;;;;;;;7.82;1.42;;;;;;;;;;4965211;28;92477;-68
2023/12/26 15:56:35;;;;;;;14.98;1.30;;;;;;;;;;4964341;28;93162;-68
2023/12/26 15:59:04;;;;;;;11.65;2.00;;;;;;;;;;4962337;28;96377;-69
2023/12/26 16:01:30;;;;;;;12.85;1.92;;;;;;;;;;4968464;28;92112;-68
2023/12/26 16:03:57;;;;;;;11.52;1.77;;;;;;;;;;4966331;28;93463;-68
2023/12/26 16:06:24;;;;;;;7.95;1.58;;;;;;;;;;4966734;28;95308;-68
2023/12/26 16:08:51;;;;;;;10.13;2.00;;;;;;;;;;4978191;28;94771;-68
2023/12/26 16:11:17;;;;;;;8.13;1.00;;;;;;;;;;4963454;28;93462;-68
2023/12/26 16:13:44;;;;;;;10.82;1.35;;;;;;;;;;4960954;28;92454;-68
2023/12/26 16:16:10;;;;;;;8.13;1.35;;;;;;;;;;4967391;28;93180;-68
2023/12/26 16:18:38;;;;;;;8.30;1.30;;;;;;;;;;4969952;28;93386;-69
2023/12/26 16:21:06;;;;;;;8.05;1.13;;;;;;;;;;4964794;28;92447;-67
2023/12/26 16:23:33;;;;;;;8.32;1.27;;;;;;;;;;4967505;28;93093;-68
2023/12/26 16:26:05;;;;;;;8.82;1.55;;;;;;;;;;4970987;28;91973;-68
2023/12/26 16:28:32;;;;;;;5.57;1.05;;;;;;;;;;4972597;28;93556;-68
2023/12/26 16:31:00;;;;;;;12.98;1.50;;;;;;;;;;4962571;28;93440;-68
2023/12/26 16:33:27;;;;;;;10.38;1.45;;;;;;;;;;4963809;28;95503;-69
2023/12/26 16:35:54;;;;;;;11.98;1.58;;;;;;;;;;4972452;28;95837;-69
2023/12/26 16:38:23;;;;;;;5.22;1.45;;;;;;;;;;4969442;28;93640;-69
2023/12/26 16:40:49;;;;;;;6.60;1.38;;;;;;;;;;4974039;28;92965;-69
2023/12/26 16:43:16;;;;;;;8.45;2.20;;;;;;;;;;4970701;28;92647;-68
2023/12/26 16:45:43;;;;;;;6.05;2.05;;;;;;;;;;4974402;28;95393;-69
2023/12/26 16:48:09;;;;;;;8.25;2.35;;;;;;;;;;4972573;28;93498;-68
2023/12/26 16:50:36;;;;;;;7.93;2.08;;;;;;;;;;4971002;28;93778;-69
2023/12/26 16:53:03;;;;;;;8.90;1.92;;;;;;;;;;4970010;28;94678;-69
2023/12/26 16:55:29;;;;;;;7.63;1.38;;;;;;;;;;4971365;28;93602;-68
2023/12/26 16:57:55;;;;;;;11.95;1.67;;;;;;;;;;4968036;28;95806;-68
2023/12/26 17:00:22;;;;;;;8.43;2.28;;;;;;;;;;4970996;28;92543;-68
2023/12/26 17:02:49;;;;;;;13.40;3.80;;;;;;;;;;4985886;28;93215;-68
2023/12/26 17:05:15;;;;;;;12.85;3.47;;;;;;;;;;4966750;28;93619;-68
2023/12/26 17:07:43;;;;;;;8.23;2.38;;;;;;;;;;4972778;28;92524;-67
2023/12/26 17:10:09;;;;;;;10.30;2.50;;;;;;;;;;4965263;28;93549;-68
2023/12/26 17:12:36;;;;;;;8.52;2.25;;;;;;;;;;4964390;28;92595;-68
2023/12/26 17:15:02;;;;;;;7.90;2.28;;;;;;;;;;4969394;28;93211;-67
2023/12/26 17:17:29;;;;;;;13.13;3.63;;;;;;;;;;4970759;28;93402;-68
2023/12/26 17:19:55;;;;;;;17.83;5.43;;;;;;;;;;4973992;28;92869;-69
2023/12/26 17:22:23;;;;;;;24.60;9.70;;;;;;;;;;4967695;28;95072;-68
2023/12/26 17:24:50;;;;;;;10.63;3.65;;;;;;;;;;4967908;28;95217;-68
2023/12/26 17:27:16;;;;;;;12.07;3.17;;;;;;;;;;4975746;28;92799;-67